createdAt,value
2022-09-27T14:07:27.446Z,12.60
2022-09-27T14:10:01.859Z,13.40
2022-09-27T14:12:37.550Z,13.70
2022-09-27T14:15:16.581Z,13.90
2022-09-27T14:17:46.278Z,13.90
2022-09-27T14:20:40.033Z,14.10
2022-09-27T14:23:37.641Z,15.20
2022-09-27T14:26:06.408Z,15.20
2022-09-27T14:28:41.888Z,14.30
2022-09-27T14:31:25.169Z,13.90
2022-09-27T14:34:13.433Z,13.80
2022-09-27T14:37:04.537Z,13.40
2022-09-27T14:39:38.453Z,13.60
2022-09-27T14:42:25.064Z,12.70
2022-09-27T14:44:55.948Z,13.10
2022-09-27T14:47:27.888Z,13.30
2022-09-27T14:50:01.888Z,11.90
2022-09-27T14:52:34.868Z,11.30
2022-09-27T14:55:08.483Z,10.80
2022-09-27T14:57:37.405Z,11.30
2022-09-27T15:00:23.329Z,10.90
2022-09-27T15:02:56.250Z,10.90
2022-09-27T15:05:30.981Z,10.80
2022-09-27T15:08:02.625Z,9.90
2022-09-27T15:10:35.277Z,10.40
2022-09-27T15:13:05.557Z,10.50
2022-09-27T15:15:40.184Z,10.80
2022-09-27T15:18:32.575Z,11.10
2022-09-27T15:21:01.554Z,11.80
2022-09-27T15:23:36.381Z,11.30
2022-09-27T15:26:17.254Z,12.50
2022-09-27T15:28:48.348Z,12.40
2022-09-27T15:31:17.501Z,13.40
2022-09-27T15:33:55.237Z,12.60
2022-09-27T15:36:50.338Z,12.20
2022-09-27T15:39:28.707Z,12.20
2022-09-27T15:42:17.693Z,13.10
2022-09-27T15:44:54.225Z,12.80
2022-09-27T15:47:35.109Z,12.90
2022-09-27T15:50:15.681Z,14.50
2022-09-27T15:52:53.088Z,12.20
2022-09-27T15:55:29.474Z,12.60
2022-09-27T15:58:05.409Z,12.80
2022-09-27T16:00:35.696Z,13.10
2022-09-27T16:03:04.503Z,13.40
2022-09-27T16:05:33.525Z,14.10
2022-09-27T16:08:01.987Z,12.90
2022-09-27T16:10:38.603Z,14.10
2022-09-27T16:13:06.928Z,13.40
2022-09-27T16:15:36.934Z,14.20
2022-09-27T16:18:05.659Z,14.10
2022-09-27T16:20:34.017Z,14.60
2022-09-27T16:23:02.608Z,13.60
2022-09-27T16:25:31.399Z,13.20
2022-09-27T16:28:04.157Z,13.50
2022-09-27T16:30:33.599Z,14.10
2022-09-27T16:33:01.836Z,14.60
2022-09-27T16:35:30.216Z,14.20
2022-09-27T16:37:58.899Z,14.30
2022-09-27T16:40:28.431Z,13.10
2022-09-27T16:42:56.783Z,14.20
2022-09-27T16:45:32.881Z,14.10
2022-09-27T16:48:01.573Z,13.90
2022-09-27T16:50:49.672Z,14.60
2022-09-27T16:53:18.255Z,13.90
2022-09-27T16:55:47.039Z,13.40
2022-09-27T16:58:15.418Z,15.00
2022-09-27T17:00:44.586Z,14.40
2022-09-27T17:03:13.520Z,14.80
2022-09-27T17:05:41.885Z,14.90
2022-09-27T17:08:10.368Z,14.20
2022-09-27T17:10:44.191Z,15.10
2022-09-27T17:13:13.719Z,15.80
2022-09-27T17:15:42.203Z,15.20
2022-09-27T17:18:13.097Z,15.00
2022-09-27T17:20:41.994Z,16.20
2022-09-27T17:23:11.084Z,14.70
2022-09-27T17:25:39.565Z,14.80
2022-09-27T17:28:08.052Z,15.50
2022-09-27T17:30:36.644Z,14.80
2022-09-27T17:33:05.727Z,15.80
2022-09-27T17:35:34.201Z,16.10
2022-09-27T17:38:02.766Z,15.90
2022-09-27T17:40:31.998Z,16.00
2022-09-27T17:43:00.379Z,16.40
2022-09-27T17:45:29.250Z,15.60
2022-09-27T17:48:20.877Z,16.60
2022-09-27T17:50:49.462Z,16.50
2022-09-27T17:53:18.142Z,16.20
2022-09-27T17:55:47.034Z,17.50
2022-09-27T17:58:15.617Z,17.10
2022-09-27T18:00:44.097Z,17.30
2022-09-27T18:03:12.682Z,17.40
2022-09-27T18:05:41.473Z,18.30
2022-09-27T18:08:10.055Z,16.70
2022-09-27T18:10:40.082Z,18.50
2022-09-27T18:13:08.654Z,18.90
2022-09-27T18:15:37.547Z,19.50
2022-09-27T18:18:06.473Z,18.30
2022-09-27T18:20:37.170Z,19.40
2022-09-27T18:23:05.547Z,18.60
2022-09-27T18:25:41.094Z,18.90
2022-09-27T18:28:11.825Z,19.50
2022-09-27T18:30:40.527Z,19.90
2022-09-27T18:33:09.101Z,19.50
2022-09-27T18:35:38.003Z,19.20
2022-09-27T18:38:06.383Z,21.10
2022-09-27T18:40:55.277Z,19.30
2022-09-27T18:43:26.058Z,20.60
2022-09-27T18:45:54.449Z,19.50
2022-09-27T18:48:22.812Z,19.50
2022-09-27T18:50:51.504Z,20.10
2022-09-27T18:53:19.849Z,19.70
2022-09-27T18:55:48.569Z,20.60
2022-09-27T18:58:17.867Z,20.70
2022-09-27T19:00:47.204Z,19.00
2022-09-27T19:03:16.500Z,20.40
2022-09-27T19:05:54.323Z,19.40
2022-09-27T19:08:26.652Z,19.60
2022-09-27T19:10:55.702Z,20.50
2022-09-27T19:13:28.886Z,19.50
2022-09-27T19:16:01.309Z,20.00
2022-09-27T19:18:30.256Z,20.30
2022-09-27T19:21:10.782Z,20.00
2022-09-27T19:23:40.148Z,20.30
2022-09-27T19:26:11.914Z,20.00
2022-09-27T19:28:42.889Z,19.20
2022-09-27T19:31:17.174Z,19.90
2022-09-27T19:33:46.081Z,19.30
2022-09-27T19:36:17.494Z,19.30
2022-09-27T19:38:46.806Z,20.00
2022-09-27T19:41:16.727Z,18.70
2022-09-27T19:43:51.511Z,20.00
2022-09-27T19:46:21.780Z,19.80
2022-09-27T19:48:51.423Z,19.70
2022-09-27T19:51:22.321Z,19.60
2022-09-27T19:53:52.252Z,20.10
2022-09-27T19:56:21.631Z,19.80
2022-09-27T19:58:50.429Z,21.20
2022-09-27T20:01:22.515Z,20.20
2022-09-27T20:03:52.929Z,21.60
2022-09-27T20:06:22.376Z,20.00
2022-09-27T20:08:52.492Z,20.20
2022-09-27T20:11:23.686Z,20.20
2022-09-27T20:13:53.093Z,20.20
2022-09-27T20:16:24.119Z,20.00
2022-09-27T20:18:55.068Z,21.10
